Time;durP1;ratioP1;P1;durP2;ratioP2;P2;SDS_P1;SDS_P2;PMS_P1;PMS_P2;Temp;Humidity;BMP_temperature;BMP_pressure;BME280_temperature;BME280_humidity;BME280_pressure;Samples;Min_cycle;Max_cycle;Signal;HPM_P1;HPM_P2
2022/12/13 00:01:39;;;;;;;10.43;8.63;;;13.30;47.50;;;;;;5054699;28;20168;-69
2022/12/13 00:04:05;;;;;;;10.23;9.00;;;13.40;47.50;;;;;;5054282;28;20179;-68
2022/12/13 00:06:37;;;;;;;10.40;8.57;;;13.30;47.40;;;;;;5054076;28;20186;-69
2022/12/13 00:09:03;;;;;;;10.45;8.57;;;13.30;47.30;;;;;;5053982;28;20182;-69
2022/12/13 00:11:29;;;;;;;10.38;8.90;;;13.30;47.40;;;;;;5054073;28;20572;-68
2022/12/13 00:13:54;;;;;;;11.20;9.27;;;13.20;47.40;;;;;;5054399;28;20190;-68
2022/12/13 00:16:22;;;;;;;10.35;8.75;;;13.20;47.50;;;;;;5054558;28;20249;-68
2022/12/13 00:18:48;;;;;;;10.07;9.07;;;13.10;47.40;;;;;;5053296;28;20575;-68
2022/12/13 00:21:15;;;;;;;9.57;8.57;;;13.10;47.40;;;;;;5054431;28;20178;-68
2022/12/13 00:23:41;;;;;;;10.27;9.20;;;13.10;47.50;;;;;;5053938;28;20644;-69
2022/12/13 00:26:15;;;;;;;9.27;8.38;;;13.10;47.50;;;;;;5053724;28;20179;-70
2022/12/13 00:28:40;;;;;;;10.35;9.27;;;13.10;47.50;;;;;;5054062;28;20194;-70
2022/12/13 00:31:06;;;;;;;11.40;9.55;;;13.20;47.50;;;;;;5054986;28;20631;-69
2022/12/13 00:33:31;;;;;;;10.93;9.05;;;13.20;47.40;;;;;;5053264;28;20186;-69
2022/12/13 00:35:57;;;;;;;9.90;8.90;;;13.30;47.40;;;;;;5054067;28;20269;-68
2022/12/13 00:38:23;;;;;;;9.98;8.43;;;13.30;47.30;;;;;;5054747;28;20213;-69
2022/12/13 00:40:49;;;;;;;9.75;8.75;;;13.30;47.20;;;;;;5052392;28;20178;-69
2022/12/13 00:43:14;;;;;;;11.20;8.82;;;13.40;47.20;;;;;;5054655;28;20199;-69
2022/12/13 00:45:40;;;;;;;9.88;8.75;;;13.50;47.80;;;;;;5053757;28;20652;-69
2022/12/13 00:48:05;;;;;;;9.98;8.98;;;13.50;47.10;;;;;;5052370;28;20218;-69
2022/12/13 00:50:31;;;;;;;9.13;8.25;;;13.40;47.10;;;;;;5053245;28;20210;-70
2022/12/13 00:53:00;;;;;;;8.68;7.80;;;13.40;47.10;;;;;;5053968;28;20175;-69
2022/12/13 00:55:26;;;;;;;9.73;8.80;;;13.30;47.10;;;;;;5053545;28;20285;-69
2022/12/13 00:57:52;;;;;;;9.23;8.38;;;13.30;47.80;;;;;;5053145;28;20666;-68
2022/12/13 01:00:17;;;;;;;9.65;8.70;;;13.20;47.20;;;;;;5053604;28;20540;-69
2022/12/13 01:02:43;;;;;;;9.50;8.50;;;13.20;47.30;;;;;;5052869;28;20179;-69
2022/12/13 01:05:09;;;;;;;9.68;8.75;;;13.20;47.30;;;;;;5054236;28;20186;-69
2022/12/13 01:07:36;;;;;;;8.30;7.57;;;13.20;47.30;;;;;;5053393;28;20551;-70
2022/12/13 01:10:01;;;;;;;9.00;8.15;;;13.20;47.40;;;;;;5052384;28;20171;-69
2022/12/13 01:12:27;;;;;;;9.98;8.55;;;13.20;47.30;;;;;;5053113;28;20223;-69
2022/12/13 01:14:52;;;;;;;10.50;9.13;;;13.20;47.20;;;;;;5052100;28;20167;-68
2022/12/13 01:17:21;;;;;;;10.75;8.27;;;13.30;47.20;;;;;;5053752;28;20217;-67
2022/12/13 01:19:49;;;;;;;9.18;8.27;;;13.30;47.20;;;;;;5052685;28;20174;-68
2022/12/13 01:22:15;;;;;;;9.38;8.10;;;13.40;47.10;;;;;;5053414;28;20278;-69
2022/12/13 01:24:40;;;;;;;7.57;6.90;;;13.40;47.00;;;;;;5052434;28;20205;-70
2022/12/13 01:27:06;;;;;;;8.45;7.65;;;13.40;47.00;;;;;;5053802;28;20549;-70
2022/12/13 01:29:31;;;;;;;10.65;8.70;;;13.30;47.00;;;;;;5051709;28;20172;-70
2022/12/13 01:31:57;;;;;;;10.32;9.23;;;13.30;47.10;;;;;;5054015;28;20183;-69
2022/12/13 01:34:23;;;;;;;9.00;8.05;;;13.20;47.00;;;;;;5053165;28;20644;-68
2022/12/13 01:36:48;;;;;;;9.57;8.57;;;13.20;47.70;;;;;;5051613;28;20187;-69
2022/12/13 01:39:16;;;;;;;9.02;8.13;;;13.10;47.00;;;;;;5052782;28;20179;-69
2022/12/13 01:41:45;;;;;;;9.70;8.70;;;13.10;47.20;;;;;;5052808;28;20171;-69
2022/12/13 01:44:48;;;;;;;8.15;7.35;;;13.10;47.10;;;;;;5052205;28;20203;-69
2022/12/13 01:47:14;;;;;;;8.98;8.07;;;13.20;47.20;;;;;;5052714;28;20648;-69
2022/12/13 01:49:40;;;;;;;10.18;8.20;;;13.20;47.20;;;;;;5050703;28;20167;-70
2022/12/13 01:52:06;;;;;;;8.75;7.85;;;13.20;47.20;;;;;;5052885;28;20179;-69
2022/12/13 01:54:35;;;;;;;8.90;7.90;;;13.20;47.00;;;;;;5053232;28;20175;-69
2022/12/13 01:57:02;;;;;;;9.05;8.20;;;13.30;47.00;;;;;;5051275;28;20198;-68
2022/12/13 01:59:27;;;;;;;8.73;7.82;;;13.40;47.00;;;;;;5051576;28;20663;-69
2022/12/13 02:01:53;;;;;;;9.43;8.45;;;13.40;46.90;;;;;;5051472;28;20175;-69
2022/12/13 02:04:48;;;;;;;8.27;7.43;;;13.40;46.80;;;;;;5053052;28;20637;-69
2022/12/13 02:07:14;;;;;;;8.75;7.85;;;13.50;46.80;;;;;;5052060;28;20199;-69
2022/12/13 02:09:40;;;;;;;8.48;7.38;;;13.50;46.60;;;;;;5052270;28;20206;-69
2022/12/13 02:12:05;;;;;;;9.07;8.00;;;13.50;46.70;;;;;;5051029;28;20231;-68
2022/12/13 02:14:31;;;;;;;8.77;7.88;;;13.50;46.60;;;;;;5050835;28;20179;-69
2022/12/13 02:17:12;;;;;;;7.97;7.20;;;13.60;46.60;;;;;;5051837;28;20198;-67
2022/12/13 02:19:37;;;;;;;8.48;7.53;;;13.50;46.50;;;;;;5050901;28;20605;-68
2022/12/13 02:22:32;;;;;;;8.73;7.90;;;13.50;46.60;;;;;;5053538;28;20633;-68
2022/12/13 02:25:11;;;;;;;9.15;7.40;;;13.40;46.60;;;;;;5054518;28;20171;-69
2022/12/13 02:27:47;;;;;;;9.88;8.15;;;13.40;46.70;;;;;;5056268;28;20167;-69
2022/12/13 02:30:29;;;;;;;9.32;8.32;;;13.30;46.70;;;;;;5054887;28;20171;-70
2022/12/13 02:33:24;;;;;;;9.95;8.15;;;13.30;46.80;;;;;;5054595;28;20546;-68
2022/12/13 02:36:11;;;;;;;10.45;7.97;;;13.20;46.80;;;;;;5054943;28;20517;-68
2022/12/13 02:39:06;;;;;;;8.50;7.30;;;13.20;46.80;;;;;;5054824;28;20219;-69
2022/12/13 02:41:48;;;;;;;8.60;7.43;;;13.30;46.80;;;;;;5054942;28;20637;-69
2022/12/13 02:44:18;;;;;;;8.63;7.72;;;13.30;46.70;;;;;;5056270;28;20265;-69
2022/12/13 02:46:53;;;;;;;8.48;7.65;;;13.30;46.70;;;;;;5054940;28;20171;-70
2022/12/13 02:49:19;;;;;;;7.53;6.82;;;13.40;46.60;;;;;;5055993;28;20273;-70
2022/12/13 02:51:45;;;;;;;8.10;7.28;;;13.40;46.60;;;;;;5054324;28;20175;-69
2022/12/13 02:54:10;;;;;;;8.00;7.20;;;13.40;46.50;;;;;;5053570;28;20175;-69
2022/12/13 02:56:36;;;;;;;8.18;7.30;;;13.50;46.50;;;;;;5055623;28;20171;-69
2022/12/13 02:59:08;;;;;;;8.93;7.72;;;13.50;46.50;;;;;;5056534;28;20218;-69
2022/12/13 03:01:53;;;;;;;8.63;7.55;;;13.40;46.40;;;;;;5054543;28;20250;-68
2022/12/13 03:06:28;;;;;;;8.52;7.50;;;13.40;46.50;;;;;;5055297;28;20289;-69
2022/12/13 03:07:41;;;;;;;8.18;7.20;;;13.30;46.50;;;;;;5055672;28;20187;-69
2022/12/13 03:10:19;;;;;;;8.40;7.50;;;13.20;46.50;;;;;;5055323;28;20265;-69
2022/12/13 03:15:57;;;;;;;8.27;7.35;;;13.20;46.70;;;;;;5055253;28;20275;-68
2022/12/13 03:18:25;;;;;;;9.85;8.18;;;13.20;46.70;;;;;;5055252;28;20600;-68
2022/12/13 03:21:02;;;;;;;9.43;7.95;;;13.20;46.70;;;;;;5053495;28;20516;-68
2022/12/13 03:23:27;;;;;;;7.88;7.15;;;13.20;46.60;;;;;;5053741;28;20182;-69
2022/12/13 03:25:54;;;;;;;8.15;7.35;;;13.20;46.50;;;;;;5055363;28;20167;-69
2022/12/13 03:28:20;;;;;;;7.95;7.15;;;13.30;46.50;;;;;;5054806;28;20232;-70
2022/12/13 03:30:46;;;;;;;10.30;8.02;;;13.30;46.50;;;;;;5054648;28;20179;-68
2022/12/13 03:33:11;;;;;;;8.05;7.25;;;13.30;46.40;;;;;;5055071;28;20190;-69
2022/12/13 03:35:38;;;;;;;8.60;7.70;;;13.40;46.30;;;;;;5054287;28;20171;-68
2022/12/13 03:38:04;;;;;;;8.40;7.47;;;13.40;46.30;;;;;;5053955;28;20297;-69
2022/12/13 03:40:30;;;;;;;8.98;8.07;;;13.40;46.30;;;;;;5054928;28;20180;-69
2022/12/13 03:42:55;;;;;;;8.40;7.45;;;13.40;46.30;;;;;;5054686;28;20232;-69
2022/12/13 03:45:21;;;;;;;9.48;8.20;;;13.30;46.30;;;;;;5056339;28;20178;-70
2022/12/13 03:47:46;;;;;;;9.27;8.25;;;13.30;46.40;;;;;;5054452;28;20236;-69
2022/12/13 03:50:12;;;;;;;10.45;8.10;;;13.20;46.50;;;;;;5054327;28;20168;-70
2022/12/13 03:52:37;;;;;;;8.85;7.95;;;13.20;46.40;;;;;;5054104;28;20182;-69
2022/12/13 03:55:03;;;;;;;8.55;7.75;;;13.10;46.40;;;;;;5055098;28;20258;-69
2022/12/13 03:57:29;;;;;;;8.30;7.50;;;13.10;46.50;;;;;;5054297;28;20285;-69
2022/12/13 03:59:54;;;;;;;9.13;7.40;;;13.20;46.50;;;;;;5055003;28;20222;-69
2022/12/13 04:02:20;;;;;;;9.18;8.27;;;13.20;46.50;;;;;;5055591;28;20591;-69
2022/12/13 04:04:45;;;;;;;9.02;8.13;;;13.20;46.40;;;;;;5054717;28;20571;-68
2022/12/13 04:07:11;;;;;;;9.20;8.40;;;13.20;46.40;;;;;;5055233;28;20548;-68
2022/12/13 04:09:36;;;;;;;8.82;7.93;;;13.20;46.30;;;;;;5054280;28;20644;-69
2022/12/13 04:14:46;;;;;;;9.48;8.48;;;13.30;46.30;;;;;;5054115;28;20258;-68
2022/12/13 04:17:11;;;;;;;9.10;8.20;;;13.40;46.20;;;;;;5054205;28;20318;-68
2022/12/13 04:19:37;;;;;;;8.80;7.90;;;13.40;46.10;;;;;;5053896;28;20569;-69
2022/12/13 04:22:02;;;;;;;9.65;8.23;;;13.40;46.10;;;;;;5054531;28;20704;-69
2022/12/13 04:24:28;;;;;;;9.30;8.40;;;13.40;46.10;;;;;;5054355;28;20173;-69
2022/12/13 04:26:53;;;;;;;8.65;7.75;;;13.50;46.00;;;;;;5053901;28;20309;-69
2022/12/13 04:29:19;;;;;;;10.25;9.25;;;13.50;46.00;;;;;;5054418;28;20261;-70
2022/12/13 04:31:44;;;;;;;10.45;8.32;;;13.40;46.00;;;;;;5052808;28;20175;-69
2022/12/13 04:34:10;;;;;;;9.10;8.20;;;13.40;46.10;;;;;;5053737;28;20256;-69
2022/12/13 04:36:35;;;;;;;8.82;7.93;;;13.30;46.10;;;;;;5055577;28;20171;-68
2022/12/13 04:39:01;;;;;;;9.05;7.97;;;13.30;46.10;;;;;;5053952;28;20214;-69
2022/12/13 04:41:27;;;;;;;8.95;8.02;;;13.20;46.20;;;;;;5054591;28;20172;-69
2022/12/13 04:43:52;;;;;;;10.07;9.07;;;13.20;46.20;;;;;;5054409;28;20179;-69
2022/12/13 04:46:19;;;;;;;9.35;8.45;;;13.20;46.20;;;;;;5052867;28;20262;-69
2022/12/13 04:48:46;;;;;;;9.55;8.52;;;13.20;46.20;;;;;;5054552;28;20205;-69
2022/12/13 04:51:14;;;;;;;9.30;8.40;;;13.20;46.20;;;;;;5053349;28;20183;-70
2022/12/13 04:53:40;;;;;;;9.48;8.57;;;13.20;46.20;;;;;;5051294;28;20179;-70
2022/12/13 04:56:06;;;;;;;8.57;7.78;;;13.30;46.20;;;;;;5055211;28;20182;-69
2022/12/13 04:58:31;;;;;;;9.68;8.77;;;13.30;46.10;;;;;;5054572;28;20234;-69
2022/12/13 05:00:57;;;;;;;9.75;8.40;;;13.30;46.00;;;;;;5053930;28;20199;-69
2022/12/13 05:03:22;;;;;;;10.25;8.93;;;13.40;46.00;;;;;;5053467;28;20220;-70
2022/12/13 05:05:48;;;;;;;8.63;7.75;;;13.40;46.00;;;;;;5054324;28;20179;-69
2022/12/13 05:08:13;;;;;;;8.48;7.55;;;13.40;45.80;;;;;;5052930;28;20183;-69
2022/12/13 05:10:42;;;;;;;9.02;8.15;;;13.40;45.80;;;;;;5053587;28;20525;-69
2022/12/13 05:13:07;;;;;;;8.85;7.95;;;13.40;45.80;;;;;;5054655;28;20231;-68
2022/12/13 05:15:33;;;;;;;9.07;8.10;;;13.40;45.80;;;;;;5053673;28;20175;-67
2022/12/13 05:18:00;;;;;;;10.02;8.18;;;13.40;45.80;;;;;;5054014;28;20207;-67
2022/12/13 05:20:26;;;;;;;9.85;8.15;;;13.30;45.90;;;;;;5054617;28;20171;-68
2022/12/13 05:22:53;;;;;;;10.43;8.43;;;13.20;46.00;;;;;;5052803;28;20179;-68
2022/12/13 05:25:19;;;;;;;9.25;8.35;;;13.20;46.00;;;;;;5052355;28;20167;-69
2022/12/13 05:27:44;;;;;;;9.07;8.18;;;13.10;46.10;;;;;;5052843;28;20641;-69
2022/12/13 05:30:10;;;;;;;8.65;7.75;;;13.10;46.10;;;;;;5053336;28;20672;-69
2022/12/13 05:32:37;;;;;;;9.55;8.55;;;13.10;46.00;;;;;;5052477;28;20179;-68
2022/12/13 05:35:03;;;;;;;8.65;7.75;;;13.20;46.10;;;;;;5052747;28;20230;-67
2022/12/13 05:37:28;;;;;;;9.38;7.60;;;13.20;46.10;;;;;;5053979;28;20202;-69
2022/12/13 05:39:54;;;;;;;8.57;7.68;;;13.20;46.00;;;;;;5053793;28;20176;-69
2022/12/13 05:42:19;;;;;;;8.68;7.78;;;13.20;45.90;;;;;;5052136;28;20171;-69
2022/12/13 05:44:45;;;;;;;8.80;7.95;;;13.30;45.70;;;;;;5053769;28;20178;-69
2022/12/13 05:47:11;;;;;;;8.65;7.60;;;13.30;45.70;;;;;;5053273;28;20170;-69
2022/12/13 05:49:36;;;;;;;8.57;7.68;;;13.30;45.70;;;;;;5053813;28;20178;-70
2022/12/13 05:52:02;;;;;;;8.35;7.45;;;13.40;45.80;;;;;;5054231;28;20171;-69
2022/12/13 05:54:27;;;;;;;8.82;7.93;;;13.40;45.80;;;;;;5053140;28;20258;-69
2022/12/13 05:56:53;;;;;;;8.23;7.43;;;13.40;45.80;;;;;;5053798;28;20171;-68
2022/12/13 05:59:18;;;;;;;9.38;8.48;;;13.50;45.70;;;;;;5056886;28;20225;-68
2022/12/13 06:01:44;;;;;;;8.45;7.55;;;13.50;45.70;;;;;;5057960;28;20237;-69
2022/12/13 06:04:10;;;;;;;9.35;7.88;;;13.40;45.70;;;;;;5056429;28;20167;-68
2022/12/13 06:06:36;;;;;;;9.02;8.20;;;13.40;45.70;;;;;;5056284;28;20203;-69
2022/12/13 06:09:02;;;;;;;10.10;8.35;;;13.30;45.70;;;;;;5057011;28;20171;-70
2022/12/13 06:11:28;;;;;;;10.32;9.23;;;13.30;45.70;;;;;;5056002;28;20183;-68
2022/12/13 06:13:53;;;;;;;10.35;9.38;;;13.20;45.70;;;;;;5056420;28;20183;-68
2022/12/13 06:16:19;;;;;;;10.48;9.48;;;13.10;45.60;;;;;;5057151;28;20167;-68
2022/12/13 06:18:44;;;;;;;11.98;9.60;;;13.10;45.80;;;;;;5055528;28;20664;-68
2022/12/13 06:21:10;;;;;;;9.48;8.55;;;13.10;45.80;;;;;;5056645;28;20523;-69
2022/12/13 06:23:35;;;;;;;9.95;8.95;;;13.20;45.80;;;;;;5055047;28;20661;-69
2022/12/13 06:26:02;;;;;;;10.02;8.95;;;13.20;45.80;;;;;;5056475;28;20186;-69
2022/12/13 06:28:28;;;;;;;10.50;9.02;;;13.20;45.70;;;;;;5057090;28;20224;-69
2022/12/13 06:30:53;;;;;;;11.30;9.55;;;13.30;45.70;;;;;;5055326;28;20648;-68
2022/12/13 06:33:19;;;;;;;9.65;8.65;;;13.30;45.70;;;;;;5056453;28;20210;-68
2022/12/13 06:35:45;;;;;;;11.00;9.80;;;13.30;45.60;;;;;;5056196;28;20207;-67
2022/12/13 06:38:12;;;;;;;12.43;10.30;;;13.30;45.60;;;;;;5055453;28;20273;-68
2022/12/13 06:40:37;;;;;;;11.45;9.43;;;13.40;45.60;;;;;;5055416;28;20176;-68
2022/12/13 06:43:03;;;;;;;12.38;9.70;;;13.40;45.60;;;;;;5055750;28;20176;-68
2022/12/13 06:45:29;;;;;;;10.45;9.35;;;13.40;45.50;;;;;;5055180;28;20175;-68
2022/12/13 06:47:55;;;;;;;10.68;9.20;;;13.40;45.50;;;;;;5055695;28;20649;-68
2022/12/13 06:50:21;;;;;;;10.15;9.00;;;13.40;45.50;;;;;;5056954;28;20167;-70
2022/12/13 06:52:46;;;;;;;11.70;9.50;;;13.30;45.60;;;;;;5054986;28;20178;-68
2022/12/13 06:55:12;;;;;;;11.68;10.30;;;13.30;45.50;;;;;;5056496;28;20214;-69
2022/12/13 06:57:38;;;;;;;10.60;9.07;;;13.20;45.60;;;;;;5056380;28;20770;-68
2022/12/13 07:00:04;;;;;;;11.82;10.10;;;13.20;45.70;;;;;;5056300;28;20178;-68
2022/12/13 07:02:30;;;;;;;12.27;9.32;;;13.10;45.60;;;;;;5056360;28;20190;-68
2022/12/13 07:04:55;;;;;;;12.18;9.55;;;13.10;45.70;;;;;;5055396;28;20175;-68
2022/12/13 07:07:21;;;;;;;10.13;9.00;;;13.10;45.60;;;;;;5055858;28;20180;-69
2022/12/13 07:09:46;;;;;;;13.20;10.20;;;13.10;45.60;;;;;;5055207;28;20182;-69
2022/12/13 07:12:12;;;;;;;10.90;9.32;;;13.20;45.70;;;;;;5055026;28;20223;-68
2022/12/13 07:14:37;;;;;;;12.02;10.57;;;13.20;45.70;;;;;;5054687;28;20178;-68
2022/12/13 07:17:03;;;;;;;11.55;9.98;;;13.20;45.60;;;;;;5055224;28;20199;-67
2022/12/13 07:19:29;;;;;;;12.70;9.50;;;13.30;45.50;;;;;;5054965;28;20183;-68
2022/12/13 07:21:55;;;;;;;11.00;9.50;;;13.30;45.50;;;;;;5054059;28;20179;-68
2022/12/13 07:24:20;;;;;;;11.30;9.18;;;13.30;45.40;;;;;;5055674;28;20172;-69
2022/12/13 07:26:46;;;;;;;12.23;10.40;;;13.40;45.50;;;;;;5055321;28;20175;-69
2022/12/13 07:29:11;;;;;;;10.38;9.35;;;13.40;45.40;;;;;;5055004;28;20185;-69
2022/12/13 07:31:37;;;;;;;12.00;9.52;;;13.40;45.30;;;;;;5055048;28;20175;-69
2022/12/13 07:34:03;;;;;;;11.30;9.50;;;13.40;45.30;;;;;;5054385;28;20649;-68
2022/12/13 07:36:28;;;;;;;10.65;9.55;;;13.40;45.30;;;;;;5054792;28;20182;-68
2022/12/13 07:38:55;;;;;;;11.75;10.27;;;13.50;45.20;;;;;;5054488;28;20317;-69
2022/12/13 07:41:22;;;;;;;10.85;9.63;;;13.50;45.20;;;;;;5054100;28;20203;-68
2022/12/13 07:43:47;;;;;;;12.07;10.02;;;13.50;45.20;;;;;;5054303;28;20564;-69
2022/12/13 07:46:13;;;;;;;11.38;10.18;;;13.50;45.20;;;;;;5054440;28;20171;-69
2022/12/13 07:48:38;;;;;;;11.60;10.15;;;13.40;45.20;;;;;;5053725;28;20179;-69
2022/12/13 07:51:06;;;;;;;10.63;9.50;;;13.30;45.20;;;;;;5054397;28;20578;-69
2022/12/13 07:53:31;;;;;;;11.52;10.10;;;13.30;45.40;;;;;;5052888;28;20672;-69
2022/12/13 07:55:59;;;;;;;11.82;10.55;;;13.20;45.40;;;;;;5053782;28;20242;-68
2022/12/13 07:58:25;;;;;;;13.65;10.05;;;13.20;45.40;;;;;;5052969;28;20265;-69
2022/12/13 08:00:50;;;;;;;10.65;9.43;;;13.20;45.50;;;;;;5054559;28;20167;-69
2022/12/13 08:03:16;;;;;;;13.10;10.23;;;13.20;45.50;;;;;;5053898;28;20178;-69
2022/12/13 08:05:41;;;;;;;10.57;9.48;;;13.20;45.40;;;;;;5054144;28;20541;-69
2022/12/13 08:08:08;;;;;;;10.73;9.52;;;13.20;45.40;;;;;;5054410;28;20629;-69
2022/12/13 08:10:33;;;;;;;11.25;9.73;;;13.30;45.40;;;;;;5053416;28;20183;-69
2022/12/13 08:13:01;;;;;;;10.38;9.32;;;13.30;45.30;;;;;;5054008;28;20230;-68
2022/12/13 08:15:27;;;;;;;11.25;10.07;;;13.30;45.20;;;;;;5054221;28;20258;-68
2022/12/13 08:17:54;;;;;;;12.10;10.23;;;13.40;45.20;;;;;;5053088;28;20302;-68
2022/12/13 08:20:20;;;;;;;12.32;10.85;;;13.40;45.20;;;;;;5052985;28;20649;-68
2022/12/13 08:22:51;;;;;;;11.82;9.77;;;13.40;45.30;;;;;;5053339;28;20221;-69
2022/12/13 08:25:17;;;;;;;11.50;10.25;;;13.40;45.20;;;;;;5051839;28;20210;-70
2022/12/13 08:27:42;;;;;;;12.25;9.93;;;13.50;45.20;;;;;;5053420;28;20202;-68
2022/12/13 08:30:08;;;;;;;10.93;9.75;;;13.50;45.10;;;;;;5053200;28;20597;-69
2022/12/13 08:32:34;;;;;;;10.52;9.40;;;13.50;45.00;;;;;;5053360;28;20536;-68
2022/12/13 08:34:59;;;;;;;11.32;10.00;;;13.50;45.10;;;;;;5053726;28;20178;-68
2022/12/13 08:37:25;;;;;;;11.38;9.80;;;13.40;45.10;;;;;;5053110;28;20214;-69
2022/12/13 08:39:51;;;;;;;11.00;9.70;;;13.40;45.10;;;;;;5053196;28;20179;-68
2022/12/13 08:42:17;;;;;;;12.05;10.30;;;13.40;45.20;;;;;;5053440;28;20190;-69
2022/12/13 08:44:42;;;;;;;14.30;10.73;;;13.30;45.20;;;;;;5052662;28;20629;-68
2022/12/13 08:47:08;;;;;;;12.45;9.48;;;13.40;45.30;;;;;;5053844;28;20198;-69
2022/12/13 08:49:33;;;;;;;12.00;10.00;;;13.40;45.30;;;;;;5053802;28;20698;-70
2022/12/13 08:51:59;;;;;;;12.75;10.00;;;13.50;45.30;;;;;;5053737;28;20179;-69
2022/12/13 08:54:27;;;;;;;10.23;9.15;;;13.50;45.30;;;;;;5053741;28;20179;-69
2022/12/13 08:56:53;;;;;;;13.13;10.57;;;13.50;45.30;;;;;;5053210;28;20177;-68
2022/12/13 08:59:18;;;;;;;12.32;10.20;;;13.60;45.30;;;;;;5052669;28;20175;-69
2022/12/13 09:01:45;;;;;;;12.55;9.88;;;13.60;45.20;;;;;;5053281;28;20250;-68
2022/12/13 09:04:10;;;;;;;15.73;10.38;;;13.60;45.10;;;;;;5053210;28;20190;-69
2022/12/13 09:06:36;;;;;;;12.38;10.18;;;13.60;45.20;;;;;;5052946;28;20167;-69
2022/12/13 09:09:02;;;;;;;12.35;10.15;;;13.60;45.30;;;;;;5053259;28;20171;-69
2022/12/13 09:11:27;;;;;;;12.10;10.45;;;13.60;45.40;;;;;;5052752;28;20190;-69
2022/12/13 09:13:53;;;;;;;12.02;10.02;;;13.60;45.40;;;;;;5052186;28;20601;-68
2022/12/13 09:16:22;;;;;;;14.38;11.05;;;13.60;45.30;;;;;;5052696;28;20179;-68
2022/12/13 09:18:48;;;;;;;12.10;10.20;;;13.60;45.60;;;;;;5052962;28;20211;-69
2022/12/13 09:21:14;;;;;;;11.63;10.25;;;13.50;45.50;;;;;;5052183;28;20193;-68
2022/12/13 09:23:43;;;;;;;13.30;10.55;;;13.60;45.60;;;;;;5053267;28;20275;-70
2022/12/13 09:26:10;;;;;;;12.52;10.60;;;13.60;45.60;;;;;;5053201;28;20661;-70
2022/12/13 09:28:35;;;;;;;10.60;9.48;;;13.60;45.50;;;;;;5050812;28;20515;-70
2022/12/13 09:31:07;;;;;;;12.52;10.68;;;13.60;45.50;;;;;;5053252;28;20174;-69
2022/12/13 09:33:33;;;;;;;12.90;11.07;;;13.60;45.50;;;;;;5051880;28;20191;-68
2022/12/13 09:35:58;;;;;;;13.00;10.55;;;13.60;45.60;;;;;;5052783;28;20644;-68
2022/12/13 09:38:24;;;;;;;11.73;9.88;;;13.60;45.70;;;;;;5051345;28;20264;-69
2022/12/13 09:40:50;;;;;;;12.32;11.00;;;13.50;45.80;;;;;;5051885;28;20174;-69
2022/12/13 09:43:23;;;;;;;12.52;11.15;;;13.40;45.80;;;;;;5051781;28;20171;-69
2022/12/13 09:45:49;;;;;;;13.27;10.80;;;13.40;45.80;;;;;;5051567;28;20228;-69
2022/12/13 09:48:18;;;;;;;12.63;11.43;;;13.30;45.80;;;;;;5052028;28;20651;-70
2022/12/13 09:50:44;;;;;;;14.82;11.85;;;13.30;45.90;;;;;;5051206;28;20175;-69
2022/12/13 09:53:10;;;;;;;13.98;11.45;;;13.30;46.10;;;;;;5051723;28;20194;-68
2022/12/13 09:55:37;;;;;;;14.05;11.52;;;13.20;46.00;;;;;;5050821;28;20225;-69
2022/12/13 09:58:06;;;;;;;15.10;12.05;;;13.20;45.90;;;;;;5051295;28;20685;-68
2022/12/13 10:00:33;;;;;;;13.15;11.85;;;13.20;45.90;;;;;;5052353;28;20205;-69
2022/12/13 10:02:59;;;;;;;12.93;11.50;;;13.20;46.00;;;;;;5050741;28;20210;-68
2022/12/13 10:05:34;;;;;;;12.90;11.60;;;13.20;45.90;;;;;;5052518;28;20175;-68
2022/12/13 10:08:04;;;;;;;13.25;11.88;;;13.20;46.00;;;;;;5052714;28;20182;-68
2022/12/13 10:10:29;;;;;;;12.60;11.30;;;13.20;45.90;;;;;;5051142;28;20167;-68
2022/12/13 10:13:15;;;;;;;12.85;10.80;;;13.10;45.80;;;;;;5052336;28;20237;-67
2022/12/13 10:15:43;;;;;;;12.70;10.85;;;13.10;46.00;;;;;;5051396;28;20563;-67
2022/12/13 10:18:09;;;;;;;13.55;11.50;;;13.10;46.00;;;;;;5051503;28;20234;-67
2022/12/13 10:20:35;;;;;;;12.95;11.45;;;13.10;46.00;;;;;;5051322;28;20648;-67
2022/12/13 10:23:00;;;;;;;14.20;11.52;;;13.10;46.00;;;;;;5050383;28;20183;-68
2022/12/13 10:25:53;;;;;;;14.05;11.80;;;13.00;46.10;;;;;;5052310;28;20270;-68
2022/12/13 10:28:28;;;;;;;12.45;10.95;;;13.00;46.10;;;;;;5050927;28;20174;-69
2022/12/13 10:30:53;;;;;;;12.90;11.57;;;13.00;46.10;;;;;;5051253;28;20167;-68
2022/12/13 10:33:21;;;;;;;13.85;11.82;;;13.10;46.10;;;;;;5051788;28;20179;-68
2022/12/13 10:36:01;;;;;;;13.15;11.75;;;13.10;46.10;;;;;;5052837;28;20210;-68
2022/12/13 10:38:27;;;;;;;12.13;10.90;;;13.10;46.10;;;;;;5052124;28;20305;-68
2022/12/13 10:40:53;;;;;;;12.85;11.50;;;13.00;46.00;;;;;;5050985;28;20198;-68
2022/12/13 10:43:22;;;;;;;13.25;11.40;;;13.00;46.10;;;;;;5052590;28;20633;-69
2022/12/13 10:45:54;;;;;;;12.68;11.35;;;13.00;46.10;;;;;;5055265;28;20174;-69
2022/12/13 10:48:23;;;;;;;14.18;12.32;;;13.00;46.10;;;;;;5056196;28;20171;-70
2022/12/13 10:51:04;;;;;;;13.02;11.52;;;13.00;46.10;;;;;;5054711;28;20171;-69
2022/12/13 10:53:34;;;;;;;11.75;10.55;;;13.00;46.10;;;;;;5054690;28;20229;-69
2022/12/13 10:56:00;;;;;;;12.20;10.90;;;12.90;46.10;;;;;;5054286;28;20179;-69
2022/12/13 10:58:34;;;;;;;13.43;11.13;;;13.00;46.20;;;;;;5054848;28;20211;-68
2022/12/13 11:01:08;;;;;;;14.10;11.40;;;12.90;46.10;;;;;;5055601;28;20171;-68
2022/12/13 11:03:34;;;;;;;12.95;11.55;;;13.00;46.10;;;;;;5055139;28;20181;-69
2022/12/13 11:06:26;;;;;;;12.15;10.85;;;13.00;46.10;;;;;;5054956;28;20178;-67
2022/12/13 11:08:52;;;;;;;13.98;11.77;;;13.00;46.10;;;;;;5053316;28;20188;-68
2022/12/13 11:11:24;;;;;;;13.60;11.80;;;13.00;46.10;;;;;;5055338;28;20178;-68
2022/12/13 11:13:53;;;;;;;13.60;11.90;;;13.00;46.20;;;;;;5054153;28;20246;-68
2022/12/13 11:16:22;;;;;;;12.70;10.85;;;12.90;46.20;;;;;;5054436;28;20656;-68
2022/12/13 11:19:01;;;;;;;12.65;11.32;;;13.00;46.10;;;;;;5054872;28;20222;-68
2022/12/13 11:21:32;;;;;;;13.23;11.43;;;12.90;46.20;;;;;;5054018;28;20214;-69
2022/12/13 11:24:00;;;;;;;12.27;11.07;;;12.90;46.10;;;;;;5053987;28;20179;-69
2022/12/13 11:26:27;;;;;;;13.07;11.63;;;12.90;46.20;;;;;;5053529;28;20175;-68
2022/12/13 11:29:30;;;;;;;12.65;11.30;;;13.00;46.20;;;;;;5054210;28;20179;-69
2022/12/13 11:32:30;;;;;;;12.15;10.95;;;13.00;46.20;;;;;;5053966;28;20178;-68
2022/12/13 11:35:05;;;;;;;13.40;11.27;;;13.00;46.20;;;;;;5053873;28;20649;-68
2022/12/13 11:37:52;;;;;;;12.40;9.73;;;13.00;46.30;;;;;;5053372;28;20221;-69
2022/12/13 11:40:23;;;;;;;11.68;10.48;;;13.00;46.30;;;;;;5054054;28;20166;-70
2022/12/13 11:43:04;;;;;;;12.63;10.75;;;13.00;46.20;;;;;;5054414;28;20214;-69
2022/12/13 11:45:32;;;;;;;12.65;10.10;;;13.00;46.40;;;;;;5054910;28;20179;-70
2022/12/13 11:48:09;;;;;;;11.40;10.25;;;12.90;46.30;;;;;;5052886;28;20176;-69
2022/12/13 11:50:45;;;;;;;12.00;10.77;;;12.90;46.40;;;;;;5054190;28;20175;-69
2022/12/13 11:53:33;;;;;;;11.00;9.90;;;12.90;46.40;;;;;;5053296;28;20179;-69
2022/12/13 11:56:24;;;;;;;12.38;10.45;;;13.00;46.40;;;;;;5052614;28;20202;-68
2022/12/13 11:59:06;;;;;;;11.20;10.10;;;13.00;46.50;;;;;;5052960;28;20508;-68
2022/12/13 12:01:42;;;;;;;12.02;10.18;;;13.00;46.40;;;;;;5053385;28;20170;-69
2022/12/13 12:04:44;;;;;;;11.00;9.55;;;13.00;46.40;;;;;;5052970;28;20178;-69
2022/12/13 12:07:11;;;;;;;11.35;10.13;;;13.10;46.50;;;;;;5053265;28;20178;-69
2022/12/13 12:09:39;;;;;;;11.63;9.70;;;13.20;46.60;;;;;;5053174;28;20179;-69
2022/12/13 12:12:15;;;;;;;10.63;9.52;;;13.20;46.60;;;;;;5052905;28;20246;-69
2022/12/13 12:14:54;;;;;;;10.88;9.73;;;13.30;46.60;;;;;;5053950;28;20178;-68
2022/12/13 12:17:23;;;;;;;10.15;8.85;;;13.30;46.50;;;;;;5052578;28;20253;-68
2022/12/13 12:19:53;;;;;;;9.98;8.82;;;13.30;46.50;;;;;;5053784;28;20179;-68
2022/12/13 12:22:38;;;;;;;10.15;9.10;;;13.40;46.40;;;;;;5051943;28;20633;-69
2022/12/13 12:25:13;;;;;;;10.77;9.35;;;13.50;46.30;;;;;;5052654;28;20182;-70
2022/12/13 12:27:53;;;;;;;10.05;9.00;;;13.50;46.30;;;;;;5053664;28;20535;-70
2022/12/13 12:30:42;;;;;;;10.13;9.05;;;13.70;46.30;;;;;;5053265;28;20207;-70
2022/12/13 12:33:22;;;;;;;10.45;9.35;;;13.60;46.20;;;;;;5053694;28;20537;-68
2022/12/13 12:36:25;;;;;;;10.35;9.35;;;13.50;46.30;;;;;;5053260;28;20685;-69
2022/12/13 12:39:16;;;;;;;9.82;8.77;;;13.50;46.30;;;;;;5053353;28;20245;-69
2022/12/13 12:42:01;;;;;;;9.43;8.35;;;13.40;46.40;;;;;;5052051;28;20232;-70
2022/12/13 12:44:40;;;;;;;9.27;8.38;;;13.40;46.60;;;;;;5051905;28;20181;-70
2022/12/13 12:47:32;;;;;;;10.75;9.10;;;13.30;46.60;;;;;;5052446;28;20175;-70
2022/12/13 12:50:09;;;;;;;10.57;9.50;;;13.40;46.60;;;;;;5052305;28;20175;-69
2022/12/13 12:52:50;;;;;;;9.23;8.20;;;13.40;47.30;;;;;;5052591;28;20258;-70
2022/12/13 12:55:19;;;;;;;10.20;8.73;;;13.40;46.60;;;;;;5052433;28;20221;-70